»·PEaware :: N1KC KBUR-KLAS

N1KC :: KBUR-KLAS

FLIGHT INFORMATION

Flight Status: Arrived
Operator: Privately registered:
United States
More flights under this callsign
Pilot: Ryan C. (15122)
Aircraft: CIRRUS VISIONJET
(SF50)
More flights by this aircraft type
Origin: KBUR Bob Hope-Burbank
United States
Destination: KLAS McCarran Intl
United States
More flights between these airports :: More routes between these airports
Route: SLAPP2 MISEN KEPEC6
File this flight plan on PilotEdge
Remarks:
Altitude:
(Current/Filed)
23,000ft
Speed:
(Current/Filed)
250kts
Departed: 04-Jan-21 04:42 PM
Arrived: 04-Jan-21 05:31 PM
Distance/Time
Traveled:
193nm/0:49
Distance/Time
To Go:
Arrived

Flight Plot

Page will automatically refresh every two minutes.

Flight plan parsing failed; only flown route is shown


Map Options




Map Legend


Flown Route
Filed Route
Departure Airport
Arrival Airport
Navaid (VOR, NDB)
Fix

Horizontal Profiles

Position Reports

Time Latitude Longitude Heading Altitude Ground
Speed
04-Jan-21 16:27 34.200027 -118.358682 263 780ft 0kts
04-Jan-21 16:28 34.200027 -118.358682 263 780ft 0kts
04-Jan-21 16:29 34.200027 -118.358682 263 780ft 0kts
04-Jan-21 16:30 34.200027 -118.358682 263 780ft 0kts
04-Jan-21 16:31 34.200027 -118.358682 263 780ft 0kts
04-Jan-21 16:32 34.200027 -118.358682 263 780ft 0kts
04-Jan-21 16:33 34.200027 -118.358682 263 780ft 0kts
04-Jan-21 16:34 34.200024 -118.358723 263 780ft 3kts
04-Jan-21 16:35 34.200178 -118.358252 347 780ft 13kts
04-Jan-21 16:36 34.203677 -118.359220 347 780ft 13kts
04-Jan-21 16:37 34.207348 -118.360228 347 780ft 10kts
04-Jan-21 16:38 34.210466 -118.361093 347 780ft 0kts
04-Jan-21 16:39 34.211512 -118.361213 35 780ft 0kts
04-Jan-21 16:40 34.211512 -118.361213 35 780ft 0kts
04-Jan-21 16:41 34.203678 -118.358089 167 885ft 108kts
04-Jan-21 16:42 34.168175 -118.378185 221 3415ft 197kts
04-Jan-21 16:43 34.127314 -118.422156 226 6150ft 200kts
04-Jan-21 16:44 34.160396 -118.456139 348 8894ft 228kts
04-Jan-21 16:45 34.223360 -118.449794 19 11386ft 243kts
04-Jan-21 16:46 34.285151 -118.419957 16 13656ft 248kts
04-Jan-21 16:47 34.350032 -118.387989 15 15639ft 257kts
04-Jan-21 16:48 34.417374 -118.354724 15 17365ft 266kts
04-Jan-21 16:49 34.483564 -118.311245 30 18856ft 283kts
04-Jan-21 16:50 34.545397 -118.250253 33 20159ft 292kts
04-Jan-21 16:51 34.608762 -118.186762 33 21302ft 299kts
04-Jan-21 16:52 34.664978 -118.112275 69 22291ft 317kts
04-Jan-21 16:53 34.685873 -118.006572 77 22997ft 329kts
04-Jan-21 16:54 34.696456 -117.893022 86 22980ft 344kts
04-Jan-21 16:55 34.703453 -117.776215 85 22974ft 349kts
04-Jan-21 16:56 34.708468 -117.658241 87 22986ft 350kts
04-Jan-21 16:57 34.713055 -117.539380 87 22994ft 351kts
04-Jan-21 16:58 34.736535 -117.424764 70 22995ft 350kts
04-Jan-21 16:59 34.766477 -117.312046 70 22987ft 350kts
04-Jan-21 17:00 34.796371 -117.199018 70 22981ft 350kts
04-Jan-21 17:01 34.826214 -117.085800 70 22972ft 350kts
04-Jan-21 17:02 34.856094 -116.972051 71 22966ft 350kts
04-Jan-21 17:03 34.885725 -116.858611 72 22965ft 350kts
04-Jan-21 17:04 34.915178 -116.745187 72 22966ft 350kts
04-Jan-21 17:05 34.966461 -116.645376 53 22967ft 350kts
04-Jan-21 17:06 35.022108 -116.546640 53 22966ft 352kts
04-Jan-21 17:07 35.077693 -116.447781 53 22963ft 354kts
04-Jan-21 17:08 35.140826 -116.355561 42 22956ft 353kts
04-Jan-21 17:09 35.209357 -116.269879 43 22951ft 350kts
04-Jan-21 17:10 35.279491 -116.181797 43 21475ft 369kts
04-Jan-21 17:11 35.350805 -116.091985 43 19867ft 369kts
04-Jan-21 17:12 35.420948 -116.003381 43 18483ft 353kts
04-Jan-21 17:13 35.489388 -115.916767 43 17117ft 353kts
04-Jan-21 17:14 35.555425 -115.832918 43 15776ft 336kts
04-Jan-21 17:15 35.620200 -115.750513 43 14356ft 333kts
04-Jan-21 17:16 35.683192 -115.670129 42 13243ft 318kts
04-Jan-21 17:17 35.746169 -115.590852 33 13152ft 324kts
04-Jan-21 17:18 35.827806 -115.571174 354 13003ft 296kts
04-Jan-21 17:19 35.910900 -115.566736 356 12996ft 299kts
04-Jan-21 17:20 35.983837 -115.527425 54 12255ft 302kts
04-Jan-21 17:21 36.012912 -115.431496 66 10979ft 290kts
04-Jan-21 17:22 36.028684 -115.334249 90 10430ft 289kts
04-Jan-21 17:23 36.025708 -115.243359 91 8896ft 247kts
04-Jan-21 17:24 36.021539 -115.162062 91 7374ft 229kts
04-Jan-21 17:25 36.032649 -115.095754 11 5872ft 196kts
04-Jan-21 17:26 36.084224 -115.083866 4 4560ft 173kts
04-Jan-21 17:27 36.119404 -115.112819 289 3456ft 140kts
04-Jan-21 17:28 36.115540 -115.146626 220 2676ft 108kts
04-Jan-21 17:29 36.091511 -115.161105 204 2183ft 63kts
04-Jan-21 17:30 36.083606 -115.166865 230 2183ft 0kts
04-Jan-21 17:31 36.083605 -115.166865 230 2183ft 0kts
04-Jan-21 17:32 36.081495 -115.169404 246 2183ft 18kts

Navigation Log

Ident Type
Flight plan parsing failed, navigation log unavailable